Time;durP1;ratioP1;P1;durP2;ratioP2;P2;SDS_P1;SDS_P2;PMS_P1;PMS_P2;Temp;Humidity;BMP_temperature;BMP_pressure;BME280_temperature;BME280_humidity;BME280_pressure;Samples;Min_cycle;Max_cycle;Signal;HPM_P1;HPM_P2
2021/10/17 00:02:21;;;;;;;15.80;12.00;;;10.50;1.00;;;;;;5105828;28;20190;-57
2021/10/17 00:04:46;;;;;;;14.43;12.47;;;10.40;1.00;;;;;;5104650;28;20186;-56
2021/10/17 00:07:12;;;;;;;16.77;11.73;;;10.30;1.00;;;;;;5085143;28;20263;-57
2021/10/17 00:09:38;;;;;;;15.10;11.27;;;10.40;1.00;;;;;;5107276;28;20549;-58
2021/10/17 00:12:06;;;;;;;20.17;12.30;;;10.40;1.00;;;;;;5101052;28;20664;-56
2021/10/17 00:14:32;;;;;;;16.83;11.60;;;10.40;1.00;;;;;;5108302;28;20580;-56
2021/10/17 00:16:57;;;;;;;14.63;10.83;;;10.30;1.00;;;;;;5107754;28;20531;-57
2021/10/17 00:19:23;;;;;;;17.10;12.90;;;10.30;1.00;;;;;;5105583;28;20221;-56
2021/10/17 00:21:48;;;;;;;13.47;11.67;;;10.20;1.00;;;;;;5104006;28;20223;-56
2021/10/17 00:24:14;;;;;;;17.83;11.90;;;10.30;1.00;;;;;;5108191;28;20187;-56
2021/10/17 00:26:39;;;;;;;15.30;11.80;;;10.30;1.00;;;;;;5101915;28;20228;-56
2021/10/17 00:29:06;;;;;;;14.20;11.50;;;10.30;1.00;;;;;;5098085;28;20260;-56
2021/10/17 00:31:31;;;;;;;14.30;11.17;;;10.20;1.00;;;;;;5098404;28;20179;-56
2021/10/17 00:33:57;;;;;;;16.37;11.27;;;10.30;1.00;;;;;;5097892;28;20856;-57
2021/10/17 00:36:26;;;;;;;15.13;11.00;;;10.20;1.00;;;;;;5106634;28;20182;-57
2021/10/17 00:38:52;;;;;;;13.03;11.70;;;10.30;1.00;;;;;;5108272;28;20194;-58
2021/10/17 00:41:18;;;;;;;14.33;11.03;;;10.20;1.00;;;;;;5106734;28;21082;-57
2021/10/17 00:43:45;;;;;;;15.30;11.90;;;10.10;1.00;;;;;;5100612;28;20191;-57
2021/10/17 00:46:21;;;;;;;14.67;10.80;;;10.30;1.00;;;;;;5105541;28;20554;-57
2021/10/17 00:48:48;;;;;;;14.00;10.63;;;10.30;1.00;;;;;;5102203;28;20419;-58
2021/10/17 00:51:14;;;;;;;14.23;11.10;;;10.30;1.00;;;;;;5090400;28;20532;-57
2021/10/17 00:53:40;;;;;;;15.90;11.27;;;10.20;1.00;;;;;;5102880;28;20783;-57
2021/10/17 00:56:06;;;;;;;15.67;12.97;;;10.10;1.00;;;;;;5104042;28;20425;-57
2021/10/17 00:58:32;;;;;;;14.10;10.90;;;10.10;1.00;;;;;;5096021;28;20532;-56
2021/10/17 01:00:58;;;;;;;14.03;11.37;;;10.00;1.00;;;;;;5104303;28;20463;-58
2021/10/17 01:03:24;;;;;;;11.33;10.13;;;10.00;1.00;;;;;;5102016;28;20930;-57
2021/10/17 01:05:50;;;;;;;15.20;10.50;;;10.10;1.00;;;;;;5105694;28;20197;-57
2021/10/17 01:08:16;;;;;;;13.47;11.40;;;10.00;1.00;;;;;;5088428;28;20224;-59
2021/10/17 01:10:42;;;;;;;12.70;9.73;;;10.10;1.00;;;;;;5098768;28;20913;-57
2021/10/17 01:13:18;;;;;;;14.90;10.20;;;10.10;1.00;;;;;;5098194;28;20497;-57
2021/10/17 01:15:49;;;;;;;15.00;10.23;;;10.00;1.00;;;;;;5107709;28;20443;-57
2021/10/17 01:18:14;;;;;;;12.80;9.93;;;10.00;1.00;;;;;;5104098;28;20426;-56
2021/10/17 01:20:40;;;;;;;16.20;9.60;;;10.10;1.00;;;;;;5105508;28;20444;-56
2021/10/17 01:23:06;;;;;;;10.97;9.40;;;10.10;1.00;;;;;;5090449;28;20249;-57
2021/10/17 01:25:31;;;;;;;11.63;9.53;;;10.10;1.00;;;;;;5103421;28;20190;-57
2021/10/17 01:27:57;;;;;;;13.03;9.00;;;10.10;1.00;;;;;;5074729;28;20464;-57
2021/10/17 01:30:22;;;;;;;13.63;9.60;;;10.10;1.00;;;;;;5103501;28;20289;-56
2021/10/17 01:32:48;;;;;;;14.53;9.80;;;10.10;1.00;;;;;;5099156;28;20230;-56
2021/10/17 01:35:13;;;;;;;10.67;9.57;;;10.10;1.00;;;;;;5105935;28;20173;-57
2021/10/17 01:37:39;;;;;;;16.20;10.57;;;10.00;1.00;;;;;;5100303;28;20270;-56
2021/10/17 01:40:06;;;;;;;15.93;10.73;;;10.00;1.00;;;;;;5102556;28;20262;-57
2021/10/17 01:42:31;;;;;;;13.30;9.30;;;10.00;1.00;;;;;;5079808;28;20810;-56
2021/10/17 01:44:57;;;;;;;11.13;9.60;;;10.10;1.00;;;;;;5106530;28;20444;-56
2021/10/17 01:47:22;;;;;;;17.90;10.40;;;10.20;1.00;;;;;;5100232;28;20234;-55
2021/10/17 01:49:48;;;;;;;15.03;11.03;;;10.00;1.00;;;;;;5085215;28;20322;-57
2021/10/17 01:52:14;;;;;;;14.70;10.10;;;10.10;1.00;;;;;;5100385;28;20209;-56
2021/10/17 01:54:39;;;;;;;10.23;8.83;;;10.10;1.00;;;;;;5099991;28;20182;-56
2021/10/17 01:57:05;;;;;;;13.70;9.40;;;10.10;1.00;;;;;;5105905;28;20182;-58
2021/10/17 01:59:30;;;;;;;10.57;9.30;;;10.10;1.00;;;;;;5102464;28;20263;-57
2021/10/17 02:01:56;;;;;;;12.90;10.43;;;10.10;1.00;;;;;;5105374;28;20213;-56
2021/10/17 02:04:22;;;;;;;10.93;9.60;;;10.00;1.00;;;;;;5103650;28;20243;-56
2021/10/17 02:06:47;;;;;;;12.67;9.70;;;10.00;1.00;;;;;;5106980;28;20307;-57
2021/10/17 02:09:13;;;;;;;14.23;10.03;;;10.00;1.00;;;;;;5103987;28;20243;-57
2021/10/17 02:11:38;;;;;;;10.60;9.50;;;10.00;1.00;;;;;;5082240;28;21501;-57
2021/10/17 02:14:04;;;;;;;11.43;8.90;;;10.00;1.00;;;;;;5097625;28;20636;-57
2021/10/17 02:16:30;;;;;;;12.77;9.80;;;10.00;1.00;;;;;;5102530;28;20747;-56
2021/10/17 02:18:55;;;;;;;13.77;9.63;;;10.00;1.00;;;;;;5098340;28;20410;-57
2021/10/17 02:21:21;;;;;;;13.70;9.20;;;10.00;1.00;;;;;;5097578;28;20237;-56
2021/10/17 02:23:48;;;;;;;10.63;9.53;;;10.00;1.00;;;;;;5102570;28;20179;-57
2021/10/17 02:26:13;;;;;;;13.13;9.00;;;10.10;1.00;;;;;;5111326;28;20452;-58
2021/10/17 02:28:39;;;;;;;14.47;9.40;;;10.10;1.00;;;;;;5108387;28;20420;-57
2021/10/17 02:31:05;;;;;;;13.33;9.80;;;10.10;1.00;;;;;;5104131;28;20616;-56
2021/10/17 02:33:30;;;;;;;12.80;9.93;;;10.10;1.00;;;;;;5110078;28;20186;-55
2021/10/17 02:35:56;;;;;;;13.30;9.80;;;10.20;1.00;;;;;;5101248;28;20189;-56
2021/10/17 02:38:21;;;;;;;10.93;9.30;;;10.20;1.00;;;;;;5108196;28;20213;-57
2021/10/17 02:40:47;;;;;;;13.03;9.83;;;10.10;1.00;;;;;;5091789;28;20251;-57
2021/10/17 02:43:13;;;;;;;10.63;8.77;;;10.10;1.00;;;;;;5109978;28;20540;-57
2021/10/17 02:45:39;;;;;;;10.73;8.93;;;10.10;1.00;;;;;;5103949;28;20287;-56
2021/10/17 02:48:04;;;;;;;11.97;10.27;;;10.20;1.00;;;;;;5107353;28;20937;-57
2021/10/17 02:50:30;;;;;;;12.03;9.70;;;10.20;1.00;;;;;;5107537;28;20222;-57
2021/10/17 02:52:56;;;;;;;10.03;9.03;;;10.20;1.00;;;;;;5109298;28;21056;-57
2021/10/17 02:55:21;;;;;;;14.60;9.70;;;10.20;1.00;;;;;;5106391;28;20218;-57
2021/10/17 02:57:47;;;;;;;14.13;9.80;;;10.10;1.00;;;;;;5106535;28;20221;-57
2021/10/17 03:00:13;;;;;;;12.33;9.20;;;10.10;1.00;;;;;;5108239;28;20193;-57
2021/10/17 03:02:39;;;;;;;11.50;8.70;;;10.20;1.00;;;;;;5100722;28;20194;-57
2021/10/17 03:05:04;;;;;;;12.67;9.33;;;10.10;1.00;;;;;;5107554;28;20426;-57
2021/10/17 03:07:30;;;;;;;12.20;10.60;;;10.10;1.00;;;;;;5111235;28;20191;-57
2021/10/17 03:09:56;;;;;;;12.80;9.93;;;10.10;1.00;;;;;;5101257;28;20484;-57
2021/10/17 03:12:21;;;;;;;11.27;9.57;;;10.10;1.00;;;;;;5107674;28;20281;-57
2021/10/17 03:14:47;;;;;;;12.13;9.00;;;10.10;1.00;;;;;;5109893;28;20183;-56
2021/10/17 03:17:12;;;;;;;14.30;9.70;;;10.10;1.00;;;;;;5088772;28;20674;-57
2021/10/17 03:19:37;;;;;;;15.17;10.93;;;10.10;1.00;;;;;;5109065;28;20178;-57
2021/10/17 03:22:03;;;;;;;11.40;9.70;;;10.10;1.00;;;;;;5107485;28;20543;-56
2021/10/17 03:24:29;;;;;;;13.70;9.43;;;10.10;1.00;;;;;;5104139;28;20305;-56
2021/10/17 03:26:54;;;;;;;12.97;9.60;;;10.20;1.00;;;;;;5106381;28;20191;-58
2021/10/17 03:29:20;;;;;;;12.93;9.13;;;10.20;1.00;;;;;;5102931;28;20202;-57
2021/10/17 03:31:45;;;;;;;11.70;8.57;;;10.10;1.00;;;;;;5111722;28;20218;-57
2021/10/17 03:34:11;;;;;;;11.67;8.80;;;10.10;1.00;;;;;;5100149;28;20201;-56
2021/10/17 03:36:37;;;;;;;12.40;9.00;;;10.10;1.00;;;;;;5106639;28;20198;-57
2021/10/17 03:39:03;;;;;;;13.40;8.97;;;10.10;1.00;;;;;;5101154;28;20194;-56
2021/10/17 03:41:29;;;;;;;12.47;9.03;;;10.10;1.00;;;;;;5109655;28;20431;-57
2021/10/17 03:43:54;;;;;;;9.53;8.40;;;10.10;1.00;;;;;;5103615;28;20494;-56
2021/10/17 03:46:20;;;;;;;10.53;8.77;;;10.10;1.00;;;;;;5105902;28;20282;-57
2021/10/17 03:48:46;;;;;;;13.17;9.50;;;10.10;1.00;;;;;;5106625;28;20586;-56
2021/10/17 03:51:12;;;;;;;12.27;8.80;;;10.20;1.00;;;;;;5094674;28;21030;-58
2021/10/17 03:53:38;;;;;;;11.67;9.13;;;10.20;1.00;;;;;;5107891;28;20456;-57
2021/10/17 03:56:03;;;;;;;12.00;9.17;;;10.10;1.00;;;;;;5100928;28;20451;-57
2021/10/17 03:58:29;;;;;;;9.50;8.60;;;10.10;1.00;;;;;;5103307;28;20205;-57
2021/10/17 04:00:55;;;;;;;13.03;8.60;;;10.10;1.00;;;;;;5102736;28;20677;-58
2021/10/17 04:03:20;;;;;;;15.40;8.83;;;10.10;1.00;;;;;;5105112;28;20264;-59
2021/10/17 04:05:46;;;;;;;14.00;9.47;;;10.10;1.00;;;;;;5104663;28;20187;-57
2021/10/17 04:08:11;;;;;;;11.03;9.00;;;10.10;1.00;;;;;;5103889;28;20643;-56
2021/10/17 04:10:37;;;;;;;11.87;9.17;;;10.20;1.00;;;;;;5104905;28;20202;-57
2021/10/17 04:13:03;;;;;;;10.80;8.77;;;10.20;1.00;;;;;;5096414;28;20178;-57
2021/10/17 04:15:28;;;;;;;11.80;8.93;;;10.20;1.00;;;;;;5103329;28;20183;-57
2021/10/17 04:17:54;;;;;;;11.13;9.20;;;10.20;1.00;;;;;;5105072;28;20204;-58
2021/10/17 04:20:20;;;;;;;11.67;9.07;;;10.10;1.00;;;;;;5102724;28;20424;-58
2021/10/17 04:22:45;;;;;;;11.07;9.40;;;10.10;1.00;;;;;;5100844;28;20240;-57
2021/10/17 04:25:11;;;;;;;16.33;9.60;;;10.10;1.00;;;;;;5102179;28;20285;-58
2021/10/17 04:27:37;;;;;;;13.03;9.97;;;10.10;1.00;;;;;;5106269;28;20261;-58
2021/10/17 04:30:05;;;;;;;10.63;8.83;;;10.00;1.00;;;;;;5102389;28;20703;-57
2021/10/17 04:32:30;;;;;;;12.70;9.27;;;10.00;1.00;;;;;;5107756;28;20441;-57
2021/10/17 04:34:56;;;;;;;9.50;8.20;;;10.10;1.00;;;;;;5101435;28;21069;-56
2021/10/17 04:37:22;;;;;;;10.63;8.90;;;10.20;1.00;;;;;;5103492;28;20244;-57
2021/10/17 04:39:47;;;;;;;10.53;9.20;;;10.10;1.00;;;;;;5102276;28;20229;-57
2021/10/17 04:42:13;;;;;;;11.77;8.37;;;10.10;1.00;;;;;;5080512;28;20204;-57
2021/10/17 04:44:39;;;;;;;12.13;8.53;;;10.20;1.00;;;;;;5104830;28;20197;-57
2021/10/17 04:47:05;;;;;;;14.97;7.80;;;10.20;1.00;;;;;;5083791;28;20215;-60
2021/10/17 04:49:30;;;;;;;13.13;9.57;;;10.10;1.00;;;;;;5104282;28;20434;-57
2021/10/17 04:51:56;;;;;;;11.37;9.37;;;10.10;1.00;;;;;;5105425;28;20189;-58
2021/10/17 04:54:22;;;;;;;14.80;9.30;;;10.10;1.00;;;;;;5103521;28;20590;-58
2021/10/17 04:56:47;;;;;;;12.37;7.73;;;10.10;1.00;;;;;;5085074;28;20627;-57
2021/10/17 04:59:20;;;;;;;11.07;8.70;;;10.10;1.00;;;;;;5098506;28;20265;-58
2021/10/17 05:01:46;;;;;;;9.63;8.50;;;10.10;1.00;;;;;;5107824;28;20178;-57
2021/10/17 05:04:11;;;;;;;11.90;8.70;;;10.10;1.00;;;;;;5101310;28;20433;-57
2021/10/17 05:06:37;;;;;;;12.87;9.03;;;10.00;1.00;;;;;;5108624;28;20239;-58
2021/10/17 05:09:03;;;;;;;11.17;8.80;;;10.00;1.00;;;;;;5106530;28;20186;-58
2021/10/17 05:11:28;;;;;;;12.23;8.03;;;10.00;1.00;;;;;;5107814;28;20187;-56
2021/10/17 05:13:54;;;;;;;11.37;8.40;;;10.00;1.00;;;;;;5101734;28;20189;-57
2021/10/17 05:16:19;;;;;;;10.70;8.53;;;10.10;1.00;;;;;;5102434;28;20214;-57
2021/10/17 05:18:45;;;;;;;12.13;7.80;;;10.00;1.00;;;;;;5098643;28;20466;-57
2021/10/17 05:21:10;;;;;;;10.90;8.67;;;10.00;1.00;;;;;;5100076;28;20198;-57
2021/10/17 05:23:36;;;;;;;9.73;8.07;;;10.00;1.00;;;;;;5104841;28;20201;-59
2021/10/17 05:26:03;;;;;;;11.00;7.87;;;10.00;1.00;;;;;;5104590;28;20590;-57
2021/10/17 05:28:30;;;;;;;10.50;8.00;;;10.00;1.00;;;;;;5107051;28;20206;-58
2021/10/17 05:30:55;;;;;;;12.13;8.40;;;10.00;1.00;;;;;;5100285;28;20468;-57
2021/10/17 05:33:21;;;;;;;10.43;8.20;;;10.00;1.00;;;;;;5099569;28;21009;-57
2021/10/17 05:35:46;;;;;;;11.63;7.90;;;10.10;1.00;;;;;;5101740;28;20525;-57
2021/10/17 05:38:12;;;;;;;11.20;8.33;;;10.10;1.00;;;;;;5107833;28;20516;-56
2021/10/17 05:40:38;;;;;;;12.77;9.10;;;10.10;1.00;;;;;;5103117;28;20204;-56
2021/10/17 05:43:03;;;;;;;11.20;8.33;;;10.00;1.00;;;;;;5106937;28;20233;-57
2021/10/17 05:45:29;;;;;;;12.70;9.07;;;10.00;1.00;;;;;;5098687;28;20214;-56
2021/10/17 05:47:54;;;;;;;9.27;8.27;;;10.10;1.00;;;;;;5095524;28;20193;-57
2021/10/17 05:50:20;;;;;;;8.77;7.93;;;10.10;1.00;;;;;;5103258;28;20239;-58
2021/10/17 05:52:45;;;;;;;8.47;7.57;;;10.20;1.00;;;;;;5107644;28;20274;-56
2021/10/17 05:55:11;;;;;;;12.50;8.00;;;10.20;1.00;;;;;;5104080;28;20187;-58
2021/10/17 05:57:38;;;;;;;8.57;7.67;;;10.20;1.00;;;;;;5087398;28;20198;-56
2021/10/17 06:00:07;;;;;;;10.07;7.30;;;10.20;1.00;;;;;;5108050;28;20185;-57
2021/10/17 06:02:33;;;;;;;10.40;7.60;;;10.30;1.00;;;;;;5105090;28;20444;-56
2021/10/17 06:04:59;;;;;;;14.40;7.30;;;10.30;1.00;;;;;;5103064;28;20449;-57
2021/10/17 06:07:24;;;;;;;7.80;6.97;;;10.30;1.00;;;;;;5103163;28;20217;-57
2021/10/17 06:09:50;;;;;;;10.20;7.90;;;10.20;1.00;;;;;;5105863;28;20198;-60
2021/10/17 06:12:16;;;;;;;10.30;7.57;;;10.10;1.00;;;;;;5112635;28;20182;-59
2021/10/17 06:14:44;;;;;;;9.40;8.43;;;10.20;1.00;;;;;;5104647;28;20214;-59
2021/10/17 06:17:10;;;;;;;12.20;8.30;;;10.30;1.00;;;;;;5109765;28;20170;-58
2021/10/17 06:19:35;;;;;;;9.20;7.83;;;10.30;1.00;;;;;;5107674;28;20446;-59
2021/10/17 06:22:03;;;;;;;9.57;8.10;;;10.40;1.00;;;;;;5099275;28;20178;-59
2021/10/17 06:24:30;;;;;;;17.90;8.30;;;10.50;1.00;;;;;;5103456;28;20513;-59
2021/10/17 06:26:56;;;;;;;10.00;7.73;;;10.50;1.00;;;;;;5093630;28;20445;-58
2021/10/17 06:29:22;;;;;;;12.17;7.90;;;10.50;1.00;;;;;;5086995;28;20852;-58
2021/10/17 06:31:47;;;;;;;11.53;8.50;;;10.50;1.00;;;;;;5107917;28;20746;-58
2021/10/17 06:34:13;;;;;;;14.33;9.17;;;10.60;1.00;;;;;;5109185;28;20203;-58
2021/10/17 06:36:39;;;;;;;13.43;8.73;;;10.40;1.00;;;;;;5081288;28;20180;-59
2021/10/17 06:39:05;;;;;;;11.50;8.60;;;10.40;1.00;;;;;;5099354;28;20186;-59
2021/10/17 06:41:30;;;;;;;13.83;8.60;;;10.50;1.00;;;;;;5101772;28;20658;-56
2021/10/17 06:43:56;;;;;;;14.87;9.70;;;10.60;1.00;;;;;;5105994;28;20423;-57
2021/10/17 06:46:22;;;;;;;10.60;8.70;;;10.60;1.00;;;;;;5102266;28;20256;-57
2021/10/17 06:48:47;;;;;;;13.63;8.90;;;10.70;1.00;;;;;;5107639;28;20183;-57
2021/10/17 06:51:12;;;;;;;13.53;10.07;;;10.80;1.00;;;;;;5098288;28;20684;-57
2021/10/17 06:53:38;;;;;;;15.47;9.40;;;10.80;1.00;;;;;;5102058;28;20174;-56
2021/10/17 06:56:04;;;;;;;10.47;8.63;;;10.80;1.00;;;;;;5096886;28;20179;-57
2021/10/17 06:58:30;;;;;;;11.00;8.93;;;10.80;1.00;;;;;;5107132;28;20193;-58
2021/10/17 07:00:56;;;;;;;11.10;8.90;;;10.90;1.00;;;;;;5102276;28;20554;-56
2021/10/17 07:03:21;;;;;;;12.73;9.77;;;11.00;1.00;;;;;;5099883;28;20509;-56
2021/10/17 07:05:47;;;;;;;10.90;8.90;;;11.10;1.00;;;;;;5102504;28;20190;-57
2021/10/17 07:08:13;;;;;;;10.57;9.47;;;11.20;1.00;;;;;;5097286;28;20313;-56
2021/10/17 07:10:38;;;;;;;13.90;9.87;;;11.20;1.00;;;;;;5083188;28;20461;-58
2021/10/17 07:13:04;;;;;;;12.07;8.70;;;11.20;1.00;;;;;;5109938;28;20187;-58
2021/10/17 07:15:29;;;;;;;11.80;8.93;;;11.40;1.00;;;;;;5098386;28;20176;-58
2021/10/17 07:17:55;;;;;;;15.03;10.50;;;11.40;1.00;;;;;;5102084;28;20503;-58
2021/10/17 07:20:21;;;;;;;14.97;10.30;;;11.40;1.00;;;;;;5101601;28;20210;-57
2021/10/17 07:22:46;;;;;;;11.33;9.40;;;11.50;1.00;;;;;;5081961;28;20272;-57
2021/10/17 07:25:12;;;;;;;11.80;9.53;;;11.50;1.00;;;;;;5092995;28;20636;-58
2021/10/17 07:27:37;;;;;;;12.90;9.77;;;11.60;1.00;;;;;;5102848;28;20194;-57
2021/10/17 07:30:05;;;;;;;13.03;9.30;;;11.60;1.00;;;;;;5101176;28;20691;-57
2021/10/17 07:32:30;;;;;;;15.47;9.77;;;11.70;1.00;;;;;;5112025;28;20269;-59
2021/10/17 07:34:56;;;;;;;13.17;9.73;;;11.70;1.00;;;;;;5105906;28;20543;-56
2021/10/17 07:37:21;;;;;;;10.97;9.10;;;11.70;1.00;;;;;;5105946;28;20176;-58
2021/10/17 07:39:47;;;;;;;11.17;8.70;;;11.70;1.00;;;;;;5106554;28;20182;-58
2021/10/17 07:42:12;;;;;;;13.03;9.43;;;11.70;1.00;;;;;;5095291;28;20258;-58
2021/10/17 07:44:38;;;;;;;11.87;8.80;;;11.80;1.00;;;;;;5102613;28;20217;-57
2021/10/17 07:47:05;;;;;;;10.63;8.40;;;11.90;1.00;;;;;;5102001;28;20226;-59
2021/10/17 07:49:30;;;;;;;11.00;8.60;;;12.00;1.00;;;;;;5106012;28;20267;-58
2021/10/17 07:51:56;;;;;;;11.07;9.80;;;11.60;1.00;;;;;;5107838;28;20429;-57
2021/10/17 07:54:22;;;;;;;14.60;9.23;;;12.00;1.00;;;;;;5100954;28;20214;-59
2021/10/17 07:56:47;;;;;;;12.10;10.07;;;11.90;1.00;;;;;;5102369;28;20191;-57
2021/10/17 07:59:13;;;;;;;13.83;10.77;;;11.80;1.00;;;;;;5102723;28;20177;-58
2021/10/17 08:01:38;;;;;;;11.83;10.00;;;11.90;1.00;;;;;;5098599;28;20257;-57
2021/10/17 08:04:04;;;;;;;11.53;9.50;;;11.80;1.00;;;;;;5099406;28;20658;-58
2021/10/17 08:06:29;;;;;;;11.80;9.50;;;11.80;1.00;;;;;;5102652;28;20178;-56
2021/10/17 08:08:55;;;;;;;15.10;9.97;;;11.80;1.00;;;;;;5102627;28;20175;-57
2021/10/17 08:11:21;;;;;;;12.93;9.80;;;11.80;1.00;;;;;;5110058;28;20255;-56
2021/10/17 08:13:46;;;;;;;12.53;9.20;;;11.90;1.00;;;;;;5095947;28;20206;-56
2021/10/17 08:16:12;;;;;;;10.47;9.37;;;12.00;1.00;;;;;;5108605;28;20179;-58
2021/10/17 08:18:38;;;;;;;13.80;9.47;;;12.20;1.00;;;;;;5096428;28;20187;-58
2021/10/17 08:21:04;;;;;;;11.83;9.07;;;12.20;1.00;;;;;;5109915;28;20448;-57
2021/10/17 08:23:30;;;;;;;13.77;9.80;;;12.30;1.00;;;;;;5084138;28;20318;-57
2021/10/17 08:25:55;;;;;;;10.03;9.03;;;12.30;1.00;;;;;;5098498;28;20539;-57
2021/10/17 08:28:21;;;;;;;10.17;8.77;;;12.20;1.00;;;;;;5097365;28;20187;-57
2021/10/17 08:30:48;;;;;;;15.27;9.87;;;12.30;1.00;;;;;;5098473;28;20210;-56
2021/10/17 08:33:15;;;;;;;12.90;9.50;;;12.30;1.00;;;;;;5102658;28;20171;-58
2021/10/17 08:35:40;;;;;;;11.47;8.73;;;12.30;1.00;;;;;;5102174;28;20419;-58
2021/10/17 08:38:06;;;;;;;14.70;9.87;;;12.30;1.00;;;;;;5095964;28;20829;-56
2021/10/17 08:40:31;;;;;;;11.40;10.20;;;12.20;1.00;;;;;;5106842;28;20560;-57
2021/10/17 08:42:58;;;;;;;11.67;9.53;;;12.10;1.00;;;;;;5088031;28;20201;-56
2021/10/17 08:45:24;;;;;;;13.40;8.20;;;12.00;1.00;;;;;;5104130;28;20222;-57
2021/10/17 08:47:51;;;;;;;10.50;9.40;;;12.20;1.00;;;;;;5108968;28;20446;-56
2021/10/17 08:50:17;;;;;;;13.60;9.73;;;12.50;1.00;;;;;;5096072;28;20947;-57
2021/10/17 08:52:44;;;;;;;9.60;8.20;;;12.80;1.00;;;;;;5107236;28;20814;-58
2021/10/17 08:55:12;;;;;;;12.57;9.77;;;13.00;1.00;;;;;;5095315;28;20415;-57
2021/10/17 08:57:38;;;;;;;13.20;9.20;;;13.20;1.00;;;;;;5095072;28;20416;-60
2021/10/17 09:00:27;;;;;;;10.20;7.20;;;13.70;1.00;;;;;;5084896;28;20480;-57
2021/10/17 09:02:53;;;;;;;13.50;8.53;;;13.80;1.00;;;;;;5093502;28;20437;-57
2021/10/17 09:05:39;;;;;;;8.60;7.03;;;14.00;1.00;;;;;;5100968;28;20447;-57
2021/10/17 09:08:05;;;;;;;8.40;6.23;;;14.10;1.00;;;;;;5097249;28;20437;-59
2021/10/17 09:10:31;;;;;;;11.73;6.70;;;14.20;1.00;;;;;;5097244;28;20985;-58
2021/10/17 09:13:14;;;;;;;6.47;5.20;;;14.30;1.00;;;;;;5098878;28;20427;-57
2021/10/17 09:15:41;;;;;;;8.57;4.93;;;14.40;1.00;;;;;;5103489;28;20188;-58
2021/10/17 09:18:21;;;;;;;9.90;6.10;;;14.30;1.00;;;;;;5095670;28;20439;-59
2021/10/17 09:20:46;;;;;;;7.43;5.13;;;14.30;1.00;;;;;;5100390;28;20552;-57
2021/10/17 09:23:13;;;;;;;5.43;4.83;;;14.30;1.00;;;;;;5077920;28;20423;-55
2021/10/17 09:25:39;;;;;;;7.97;5.30;;;14.40;1.00;;;;;;5103751;28;20202;-57
2021/10/17 09:28:19;;;;;;;7.03;5.10;;;14.40;1.00;;;;;;5096610;28;20408;-56
2021/10/17 09:31:03;;;;;;;8.83;4.37;;;14.50;1.00;;;;;;5098901;28;20209;-56
2021/10/17 09:33:30;;;;;;;6.23;4.60;;;14.80;1.00;;;;;;5101148;28;20468;-56
2021/10/17 09:35:56;;;;;;;8.87;4.80;;;15.10;1.00;;;;;;5094273;28;20430;-57
2021/10/17 09:38:45;;;;;;;9.13;4.67;;;15.10;1.00;;;;;;5095983;28;22137;-56
2021/10/17 09:41:19;;;;;;;5.07;3.83;;;15.20;1.00;;;;;;5097189;28;20438;-59
2021/10/17 09:43:56;;;;;;;6.67;3.10;;;15.40;1.00;;;;;;5101562;28;20445;-55
2021/10/17 09:46:23;;;;;;;4.40;3.00;;;15.50;1.00;;;;;;5073585;28;20501;-55
2021/10/17 09:48:49;;;;;;;6.57;3.50;;;15.50;1.00;;;;;;5101196;28;20420;-55
2021/10/17 09:51:21;;;;;;;6.07;3.53;;;15.40;1.00;;;;;;5103670;28;20517;-58
2021/10/17 09:53:59;;;;;;;9.13;3.87;;;15.40;1.00;;;;;;5098836;28;20191;-56
2021/10/17 09:56:24;;;;;;;4.27;2.10;;;15.60;1.00;;;;;;5096569;28;20450;-55
2021/10/17 09:58:52;;;;;;;3.07;1.87;;;15.80;1.00;;;;;;5100894;28;20927;-55
2021/10/17 10:01:20;;;;;;;4.83;2.93;;;15.60;1.00;;;;;;5096827;28;20275;-57
2021/10/17 10:03:46;;;;;;;7.30;2.10;;;15.20;1.00;;;;;;5092099;28;20446;-56
2021/10/17 10:06:12;;;;;;;6.77;2.10;;;15.00;1.00;;;;;;5075657;28;20427;-57
2021/10/17 10:08:38;;;;;;;3.77;2.37;;;15.10;1.00;;;;;;5097130;28;21166;-56
2021/10/17 10:11:04;;;;;;;3.53;1.67;;;15.20;1.00;;;;;;5100940;28;20761;-56
2021/10/17 10:13:31;;;;;;;4.77;2.47;;;15.30;1.00;;;;;;5103099;28;20332;-56
2021/10/17 10:15:58;;;;;;;3.00;1.70;;;15.20;1.00;;;;;;5095569;28;20191;-56
2021/10/17 10:18:27;;;;;;;5.63;2.13;;;15.30;1.00;;;;;;5103126;28;20423;-57
2021/10/17 10:20:53;;;;;;;3.53;1.80;;;15.40;1.00;;;;;;5099421;28;20531;-58
2021/10/17 10:23:18;;;;;;;5.90;2.63;;;15.50;1.00;;;;;;5093258;28;20480;-57
2021/10/17 10:25:44;;;;;;;4.50;2.50;;;15.70;1.00;;;;;;5099350;28;20195;-58
2021/10/17 10:28:22;;;;;;;4.53;2.37;;;15.80;1.00;;;;;;5101298;28;20544;-56
2021/10/17 10:30:48;;;;;;;4.73;2.10;;;15.60;1.00;;;;;;5071827;28;20215;-55
2021/10/17 10:33:19;;;;;;;9.00;3.07;;;15.60;1.00;;;;;;5104515;28;20419;-57
2021/10/17 10:36:04;;;;;;;6.30;2.80;;;16.00;1.00;;;;;;5100728;28;20194;-57
2021/10/17 10:38:52;;;;;;;7.03;2.47;;;16.10;1.00;;;;;;5100323;28;20492;-56
2021/10/17 10:41:23;;;;;;;6.33;2.33;;;16.00;1.00;;;;;;5099470;28;20445;-56
2021/10/17 10:43:49;;;;;;;5.13;2.40;;;15.80;1.00;;;;;;5103694;28;20414;-56
2021/10/17 10:46:28;;;;;;;4.67;2.30;;;15.70;1.00;;;;;;5108868;28;20451;-56
2021/10/17 10:48:54;;;;;;;5.63;2.37;;;15.50;1.00;;;;;;5100176;28;20697;-60
2021/10/17 10:51:40;;;;;;;6.13;2.97;;;15.40;1.00;;;;;;5099327;28;20447;-58
2021/10/17 10:54:27;;;;;;;5.80;2.70;;;15.10;1.00;;;;;;5104161;28;20946;-58
2021/10/17 10:56:56;;;;;;;4.57;2.30;;;15.20;1.00;;;;;;5087926;28;20442;-54
2021/10/17 10:59:27;;;;;;;3.73;2.30;;;15.10;1.00;;;;;;5084146;28;20448;-57
2021/10/17 11:02:02;;;;;;;7.27;2.03;;;15.50;1.00;;;;;;5101430;28;20477;-56
2021/10/17 11:04:41;;;;;;;7.77;2.60;;;15.80;1.00;;;;;;5105228;28;20440;-56
2021/10/17 11:07:19;;;;;;;5.23;1.93;;;15.70;1.00;;;;;;5104330;28;20446;-56
2021/10/17 11:09:46;;;;;;;4.13;2.13;;;15.70;1.00;;;;;;5100140;28;20475;-57
2021/10/17 11:12:43;;;;;;;4.50;2.00;;;15.40;1.00;;;;;;5104215;28;20508;-56
2021/10/17 11:15:12;;;;;;;4.43;2.23;;;15.10;1.00;;;;;;5099439;28;20436;-56
2021/10/17 11:17:38;;;;;;;6.10;2.30;;;15.10;1.00;;;;;;5104174;28;20429;-56
2021/10/17 11:20:05;;;;;;;3.50;2.20;;;15.00;1.00;;;;;;5101378;28;20886;-55
2021/10/17 11:22:37;;;;;;;3.30;2.00;;;15.10;1.00;;;;;;5104301;28;20753;-56
2021/10/17 11:25:03;;;;;;;4.20;2.50;;;15.20;1.00;;;;;;5100136;28;20446;-55
2021/10/17 11:27:29;;;;;;;4.17;2.50;;;15.50;1.00;;;;;;5110139;28;20536;-57
2021/10/17 11:29:54;;;;;;;3.60;3.00;;;15.70;1.00;;;;;;5102305;28;20522;-56
2021/10/17 11:32:20;;;;;;;4.57;1.90;;;15.90;1.00;;;;;;5107807;28;20179;-56
2021/10/17 11:34:55;;;;;;;5.43;2.57;;;15.90;1.00;;;;;;5103328;28;20191;-57
2021/10/17 11:37:24;;;;;;;6.87;2.10;;;15.80;1.00;;;;;;5088087;28;20189;-56
2021/10/17 11:39:57;;;;;;;3.07;2.37;;;15.90;1.00;;;;;;5107003;28;20923;-57
2021/10/17 11:42:25;;;;;;;3.53;2.40;;;15.80;1.00;;;;;;5101096;28;20423;-58
2021/10/17 11:44:51;;;;;;;10.20;1.90;;;15.80;1.00;;;;;;5107718;28;20424;-58
2021/10/17 11:47:18;;;;;;;4.13;2.20;;;15.90;1.00;;;;;;5084091;28;20458;-56
2021/10/17 11:49:44;;;;;;;3.47;2.23;;;16.20;1.00;;;;;;5099665;28;20453;-57
2021/10/17 11:52:14;;;;;;;6.23;2.00;;;16.20;1.00;;;;;;5103892;28;20509;-55
2021/10/17 11:54:45;;;;;;;4.33;2.20;;;16.00;1.00;;;;;;5101218;28;20426;-55
2021/10/17 11:57:29;;;;;;;3.87;2.33;;;16.10;1.00;;;;;;5100006;28;20438;-56
2021/10/17 11:59:56;;;;;;;3.60;1.93;;;16.00;1.00;;;;;;5103370;28;20449;-55
2021/10/17 12:02:36;;;;;;;2.57;1.83;;;15.80;1.00;;;;;;5099734;28;20423;-55
2021/10/17 12:05:15;;;;;;;5.30;2.40;;;15.70;1.00;;;;;;5108426;28;20820;-55
2021/10/17 12:07:42;;;;;;;6.30;2.07;;;15.70;1.00;;;;;;5102705;28;20516;-57
2021/10/17 12:10:12;;;;;;;2.60;1.87;;;15.70;1.00;;;;;;5104476;28;20484;-57
2021/10/17 12:12:41;;;;;;;4.27;2.17;;;16.00;1.00;;;;;;5104111;28;20463;-55
2021/10/17 12:15:13;;;;;;;4.10;2.13;;;15.90;1.00;;;;;;5083410;28;20448;-57
2021/10/17 12:17:39;;;;;;;7.13;2.63;;;15.90;1.00;;;;;;5102473;28;20855;-55
2021/10/17 12:20:07;;;;;;;3.00;1.40;;;15.90;1.00;;;;;;5101003;28;20441;-56
2021/10/17 12:22:33;;;;;;;5.17;2.17;;;15.90;1.00;;;;;;5097339;28;20503;-55
2021/10/17 12:24:59;;;;;;;3.27;1.93;;;16.10;1.00;;;;;;5087423;28;21099;-55
2021/10/17 12:27:31;;;;;;;3.83;2.87;;;16.40;1.00;;;;;;5102330;28;20207;-56
2021/10/17 12:30:20;;;;;;;7.80;2.80;;;16.50;1.00;;;;;;5104114;28;20540;-55
2021/10/17 12:32:51;;;;;;;7.93;2.33;;;16.40;1.00;;;;;;5099274;28;20412;-56
2021/10/17 12:35:33;;;;;;;3.63;1.87;;;16.30;1.00;;;;;;5105509;28;20420;-55
2021/10/17 12:38:09;;;;;;;4.03;1.90;;;16.20;1.00;;;;;;5098721;28;20963;-57
2021/10/17 12:40:59;;;;;;;4.13;2.17;;;16.10;1.00;;;;;;5104535;28;20447;-56
2021/10/17 12:43:26;;;;;;;3.93;2.27;;;16.00;1.00;;;;;;5086534;28;20771;-56
2021/10/17 12:45:53;;;;;;;8.00;4.10;;;16.00;1.00;;;;;;5104210;28;20512;-56
2021/10/17 12:48:36;;;;;;;4.13;2.03;;;15.90;1.00;;;;;;5096942;28;20513;-56
2021/10/17 12:51:02;;;;;;;3.20;1.90;;;15.70;1.00;;;;;;5081816;28;20463;-57